sensor_id;sensor_type;location;lat;lon;timestamp;temperature;humidity
22071;DHT22;11200;51.488;6.668;2023-05-02T00:01:26;11.20;99.90
22071;DHT22;11200;51.488;6.668;2023-05-02T00:03:51;11.10;99.90
22071;DHT22;11200;51.488;6.668;2023-05-02T00:06:17;11.10;99.90
22071;DHT22;11200;51.488;6.668;2023-05-02T00:08:43;11.10;99.90
22071;DHT22;11200;51.488;6.668;2023-05-02T00:11:09;11.10;99.90
22071;DHT22;11200;51.488;6.668;2023-05-02T00:13:34;11.10;99.90
22071;DHT22;11200;51.488;6.668;2023-05-02T00:16:00;11.10;99.90
22071;DHT22;11200;51.488;6.668;2023-05-02T00:18:26;11.10;99.90
22071;DHT22;11200;51.488;6.668;2023-05-02T00:20:51;11.00;99.90
22071;DHT22;11200;51.488;6.668;2023-05-02T00:23:17;11.00;99.90
22071;DHT22;11200;51.488;6.668;2023-05-02T00:25:44;11.00;99.90
22071;DHT22;11200;51.488;6.668;2023-05-02T00:28:10;11.00;99.90
22071;DHT22;11200;51.488;6.668;2023-05-02T00:30:36;11.00;99.90
22071;DHT22;11200;51.488;6.668;2023-05-02T00:33:01;10.90;99.90
22071;DHT22;11200;51.488;6.668;2023-05-02T00:35:27;10.90;99.90
22071;DHT22;11200;51.488;6.668;2023-05-02T00:37:52;10.90;99.90
22071;DHT22;11200;51.488;6.668;2023-05-02T00:40:18;10.90;99.90
22071;DHT22;11200;51.488;6.668;2023-05-02T00:42:44;10.80;99.90
22071;DHT22;11200;51.488;6.668;2023-05-02T00:45:09;10.80;99.90
22071;DHT22;11200;51.488;6.668;2023-05-02T00:47:36;10.80;99.90
22071;DHT22;11200;51.488;6.668;2023-05-02T00:50:02;10.80;99.90
22071;DHT22;11200;51.488;6.668;2023-05-02T00:52:30;10.80;99.90
22071;DHT22;11200;51.488;6.668;2023-05-02T00:54:55;10.80;99.90
22071;DHT22;11200;51.488;6.668;2023-05-02T00:57:21;10.70;99.90
22071;DHT22;11200;51.488;6.668;2023-05-02T00:59:47;10.70;99.90
22071;DHT22;11200;51.488;6.668;2023-05-02T01:02:47;10.70;99.90
22071;DHT22;11200;51.488;6.668;2023-05-02T01:05:17;10.70;99.90
22071;DHT22;11200;51.488;6.668;2023-05-02T01:07:53;10.70;99.90
22071;DHT22;11200;51.488;6.668;2023-05-02T01:13:16;10.60;99.90
22071;DHT22;11200;51.488;6.668;2023-05-02T01:15:42;10.70;99.90
22071;DHT22;11200;51.488;6.668;2023-05-02T01:18:11;10.70;99.90
22071;DHT22;11200;51.488;6.668;2023-05-02T01:20:40;10.70;99.90
22071;DHT22;11200;51.488;6.668;2023-05-02T01:23:20;10.70;99.90
22071;DHT22;11200;51.488;6.668;2023-05-02T01:26:09;10.70;99.90
22071;DHT22;11200;51.488;6.668;2023-05-02T01:29:01;10.70;99.90
22071;DHT22;11200;51.488;6.668;2023-05-02T01:31:34;10.70;99.90
22071;DHT22;11200;51.488;6.668;2023-05-02T01:34:02;10.70;99.90
22071;DHT22;11200;51.488;6.668;2023-05-02T01:36:30;10.80;99.90
22071;DHT22;11200;51.488;6.668;2023-05-02T01:38:58;10.70;99.90
22071;DHT22;11200;51.488;6.668;2023-05-02T01:41:26;10.80;99.90
22071;DHT22;11200;51.488;6.668;2023-05-02T01:43:58;10.80;99.90
22071;DHT22;11200;51.488;6.668;2023-05-02T01:46:31;10.80;99.90
22071;DHT22;11200;51.488;6.668;2023-05-02T01:49:00;10.80;99.90
22071;DHT22;11200;51.488;6.668;2023-05-02T01:51:29;10.80;99.90
22071;DHT22;11200;51.488;6.668;2023-05-02T01:54:07;10.80;99.90
22071;DHT22;11200;51.488;6.668;2023-05-02T01:56:35;10.90;99.90
22071;DHT22;11200;51.488;6.668;2023-05-02T01:59:05;10.90;99.90
22071;DHT22;11200;51.488;6.668;2023-05-02T02:01:34;10.90;99.90
22071;DHT22;11200;51.488;6.668;2023-05-02T02:04:01;10.90;99.90
22071;DHT22;11200;51.488;6.668;2023-05-02T02:06:29;10.90;99.90
22071;DHT22;11200;51.488;6.668;2023-05-02T02:08:54;10.90;99.90
22071;DHT22;11200;51.488;6.668;2023-05-02T02:11:35;10.90;99.90
22071;DHT22;11200;51.488;6.668;2023-05-02T02:14:14;11.00;99.90
22071;DHT22;11200;51.488;6.668;2023-05-02T02:16:41;10.90;99.90
22071;DHT22;11200;51.488;6.668;2023-05-02T02:19:09;10.90;99.90
22071;DHT22;11200;51.488;6.668;2023-05-02T02:21:36;10.90;99.90
22071;DHT22;11200;51.488;6.668;2023-05-02T02:24:04;11.00;99.90
22071;DHT22;11200;51.488;6.668;2023-05-02T02:26:30;11.00;99.90
22071;DHT22;11200;51.488;6.668;2023-05-02T02:28:56;11.10;99.90
22071;DHT22;11200;51.488;6.668;2023-05-02T02:31:22;11.00;99.90
22071;DHT22;11200;51.488;6.668;2023-05-02T02:33:50;11.00;99.90
22071;DHT22;11200;51.488;6.668;2023-05-02T02:36:32;11.00;99.90
22071;DHT22;11200;51.488;6.668;2023-05-02T02:39:34;11.00;99.90
22071;DHT22;11200;51.488;6.668;2023-05-02T02:47:55;11.00;99.90
22071;DHT22;11200;51.488;6.668;2023-05-02T02:53:25;11.00;99.90
22071;DHT22;11200;51.488;6.668;2023-05-02T02:55:57;11.00;99.90
22071;DHT22;11200;51.488;6.668;2023-05-02T02:58:36;11.00;99.90
22071;DHT22;11200;51.488;6.668;2023-05-02T03:01:05;11.10;99.90
22071;DHT22;11200;51.488;6.668;2023-05-02T03:03:35;11.10;99.90
22071;DHT22;11200;51.488;6.668;2023-05-02T03:06:04;11.10;99.90
22071;DHT22;11200;51.488;6.668;2023-05-02T03:08:38;11.10;99.90
22071;DHT22;11200;51.488;6.668;2023-05-02T03:11:04;11.10;99.90
22071;DHT22;11200;51.488;6.668;2023-05-02T03:13:30;11.10;99.90
22071;DHT22;11200;51.488;6.668;2023-05-02T03:16:23;11.10;99.90
22071;DHT22;11200;51.488;6.668;2023-05-02T03:18:53;11.10;99.90
22071;DHT22;11200;51.488;6.668;2023-05-02T03:21:18;11.10;99.90
22071;DHT22;11200;51.488;6.668;2023-05-02T03:23:44;11.10;99.90
22071;DHT22;11200;51.488;6.668;2023-05-02T03:26:10;11.10;99.90
22071;DHT22;11200;51.488;6.668;2023-05-02T03:28:35;11.10;99.90
22071;DHT22;11200;51.488;6.668;2023-05-02T03:31:01;11.10;99.90
22071;DHT22;11200;51.488;6.668;2023-05-02T03:33:26;11.10;99.90
22071;DHT22;11200;51.488;6.668;2023-05-02T03:35:52;11.10;99.90
22071;DHT22;11200;51.488;6.668;2023-05-02T03:38:18;11.10;99.90
22071;DHT22;11200;51.488;6.668;2023-05-02T03:40:43;11.10;99.90
22071;DHT22;11200;51.488;6.668;2023-05-02T03:43:09;11.10;99.90
22071;DHT22;11200;51.488;6.668;2023-05-02T03:45:35;11.10;99.90
22071;DHT22;11200;51.488;6.668;2023-05-02T03:48:01;11.10;99.90
22071;DHT22;11200;51.488;6.668;2023-05-02T03:50:27;11.20;99.90
22071;DHT22;11200;51.488;6.668;2023-05-02T03:52:53;11.10;99.90
22071;DHT22;11200;51.488;6.668;2023-05-02T03:55:19;11.10;99.90
22071;DHT22;11200;51.488;6.668;2023-05-02T03:57:45;11.10;99.90
22071;DHT22;11200;51.488;6.668;2023-05-02T04:00:14;11.20;99.90
22071;DHT22;11200;51.488;6.668;2023-05-02T04:02:43;11.10;99.90
22071;DHT22;11200;51.488;6.668;2023-05-02T04:05:08;11.10;99.90
22071;DHT22;11200;51.488;6.668;2023-05-02T04:07:34;11.10;99.90
22071;DHT22;11200;51.488;6.668;2023-05-02T04:10:04;11.10;99.90
22071;DHT22;11200;51.488;6.668;2023-05-02T04:12:30;11.00;99.90
22071;DHT22;11200;51.488;6.668;2023-05-02T04:14:55;11.20;99.90
22071;DHT22;11200;51.488;6.668;2023-05-02T04:17:21;11.20;99.90
22071;DHT22;11200;51.488;6.668;2023-05-02T04:19:46;11.10;99.90
22071;DHT22;11200;51.488;6.668;2023-05-02T04:22:12;11.20;99.90
22071;DHT22;11200;51.488;6.668;2023-05-02T04:24:38;11.20;99.90
22071;DHT22;11200;51.488;6.668;2023-05-02T04:27:03;11.20;99.90
22071;DHT22;11200;51.488;6.668;2023-05-02T04:29:29;11.20;99.90
22071;DHT22;11200;51.488;6.668;2023-05-02T04:31:54;11.20;99.90
22071;DHT22;11200;51.488;6.668;2023-05-02T04:34:23;11.20;99.90
22071;DHT22;11200;51.488;6.668;2023-05-02T04:36:49;11.20;99.90
22071;DHT22;11200;51.488;6.668;2023-05-02T04:39:14;11.20;99.90
22071;DHT22;11200;51.488;6.668;2023-05-02T04:41:40;11.20;99.90
22071;DHT22;11200;51.488;6.668;2023-05-02T04:44:07;11.20;99.90
22071;DHT22;11200;51.488;6.668;2023-05-02T04:46:33;11.20;99.90
22071;DHT22;11200;51.488;6.668;2023-05-02T04:48:58;11.20;99.90
22071;DHT22;11200;51.488;6.668;2023-05-02T04:51:24;11.20;99.90
22071;DHT22;11200;51.488;6.668;2023-05-02T04:53:49;11.20;99.90
22071;DHT22;11200;51.488;6.668;2023-05-02T04:56:18;11.20;99.90
22071;DHT22;11200;51.488;6.668;2023-05-02T04:58:44;11.20;99.90
22071;DHT22;11200;51.488;6.668;2023-05-02T05:01:09;11.20;99.90
22071;DHT22;11200;51.488;6.668;2023-05-02T05:03:35;11.20;99.90
22071;DHT22;11200;51.488;6.668;2023-05-02T05:06:01;11.20;99.90
22071;DHT22;11200;51.488;6.668;2023-05-02T05:08:26;11.20;99.90
22071;DHT22;11200;51.488;6.668;2023-05-02T05:10:52;11.20;99.90
22071;DHT22;11200;51.488;6.668;2023-05-02T05:13:17;11.20;99.90
22071;DHT22;11200;51.488;6.668;2023-05-02T05:15:43;11.20;99.90
22071;DHT22;11200;51.488;6.668;2023-05-02T05:18:09;11.10;99.90
22071;DHT22;11200;51.488;6.668;2023-05-02T05:20:34;11.20;99.90
22071;DHT22;11200;51.488;6.668;2023-05-02T05:23:00;11.20;99.90
22071;DHT22;11200;51.488;6.668;2023-05-02T05:25:26;11.10;99.90
22071;DHT22;11200;51.488;6.668;2023-05-02T05:27:54;11.20;99.90
22071;DHT22;11200;51.488;6.668;2023-05-02T05:30:20;11.20;99.90
22071;DHT22;11200;51.488;6.668;2023-05-02T05:32:49;11.10;99.90
22071;DHT22;11200;51.488;6.668;2023-05-02T05:35:15;11.20;99.90
22071;DHT22;11200;51.488;6.668;2023-05-02T05:37:41;11.20;99.90
22071;DHT22;11200;51.488;6.668;2023-05-02T05:40:07;11.10;99.90
22071;DHT22;11200;51.488;6.668;2023-05-02T05:42:33;11.20;99.90
22071;DHT22;11200;51.488;6.668;2023-05-02T05:44:58;11.10;99.90
22071;DHT22;11200;51.488;6.668;2023-05-02T05:47:24;11.20;99.90
22071;DHT22;11200;51.488;6.668;2023-05-02T05:49:54;11.10;99.90
22071;DHT22;11200;51.488;6.668;2023-05-02T05:52:20;11.10;99.90
22071;DHT22;11200;51.488;6.668;2023-05-02T05:54:46;11.10;99.90
22071;DHT22;11200;51.488;6.668;2023-05-02T05:57:11;11.10;99.90
22071;DHT22;11200;51.488;6.668;2023-05-02T05:59:37;11.30;99.90
22071;DHT22;11200;51.488;6.668;2023-05-02T06:02:02;11.10;99.90
22071;DHT22;11200;51.488;6.668;2023-05-02T06:04:28;11.10;99.90
22071;DHT22;11200;51.488;6.668;2023-05-02T06:06:54;11.10;99.90
22071;DHT22;11200;51.488;6.668;2023-05-02T06:09:20;11.10;99.90
22071;DHT22;11200;51.488;6.668;2023-05-02T06:11:48;11.20;99.90
22071;DHT22;11200;51.488;6.668;2023-05-02T06:14:14;11.10;99.90
22071;DHT22;11200;51.488;6.668;2023-05-02T06:16:40;11.10;99.90
22071;DHT22;11200;51.488;6.668;2023-05-02T06:19:06;11.20;99.90
22071;DHT22;11200;51.488;6.668;2023-05-02T06:21:32;11.10;99.90
22071;DHT22;11200;51.488;6.668;2023-05-02T06:23:57;11.20;99.90
22071;DHT22;11200;51.488;6.668;2023-05-02T06:26:23;11.20;99.90
22071;DHT22;11200;51.488;6.668;2023-05-02T06:28:48;11.20;99.90
22071;DHT22;11200;51.488;6.668;2023-05-02T06:31:14;11.20;99.90
22071;DHT22;11200;51.488;6.668;2023-05-02T06:33:40;11.20;99.90
22071;DHT22;11200;51.488;6.668;2023-05-02T06:36:07;11.20;99.90
22071;DHT22;11200;51.488;6.668;2023-05-02T06:38:32;11.20;99.90
22071;DHT22;11200;51.488;6.668;2023-05-02T06:40:58;11.30;99.90
22071;DHT22;11200;51.488;6.668;2023-05-02T06:43:23;11.30;99.90
22071;DHT22;11200;51.488;6.668;2023-05-02T06:45:52;11.30;99.90
22071;DHT22;11200;51.488;6.668;2023-05-02T06:48:18;11.30;99.90
22071;DHT22;11200;51.488;6.668;2023-05-02T06:50:44;11.30;99.90
22071;DHT22;11200;51.488;6.668;2023-05-02T06:53:10;11.30;99.90
22071;DHT22;11200;51.488;6.668;2023-05-02T06:55:35;11.30;99.90
22071;DHT22;11200;51.488;6.668;2023-05-02T06:58:01;11.30;99.90
22071;DHT22;11200;51.488;6.668;2023-05-02T07:00:26;11.30;99.90
22071;DHT22;11200;51.488;6.668;2023-05-02T07:02:52;11.30;99.90
22071;DHT22;11200;51.488;6.668;2023-05-02T07:05:18;11.30;99.90
22071;DHT22;11200;51.488;6.668;2023-05-02T07:07:44;11.30;99.90
22071;DHT22;11200;51.488;6.668;2023-05-02T07:10:10;11.30;99.90
22071;DHT22;11200;51.488;6.668;2023-05-02T07:12:37;11.20;99.90
22071;DHT22;11200;51.488;6.668;2023-05-02T07:15:04;11.30;99.90
22071;DHT22;11200;51.488;6.668;2023-05-02T07:17:30;11.30;99.90
22071;DHT22;11200;51.488;6.668;2023-05-02T07:19:56;11.20;99.90
22071;DHT22;11200;51.488;6.668;2023-05-02T07:22:22;11.20;99.90
22071;DHT22;11200;51.488;6.668;2023-05-02T07:24:48;11.30;99.90
22071;DHT22;11200;51.488;6.668;2023-05-02T07:27:13;11.30;99.90
22071;DHT22;11200;51.488;6.668;2023-05-02T07:29:39;11.30;99.90
22071;DHT22;11200;51.488;6.668;2023-05-02T07:32:07;11.30;99.90
22071;DHT22;11200;51.488;6.668;2023-05-02T07:34:32;11.30;99.90
22071;DHT22;11200;51.488;6.668;2023-05-02T07:36:58;11.40;99.90
22071;DHT22;11200;51.488;6.668;2023-05-02T07:39:24;11.40;99.90
22071;DHT22;11200;51.488;6.668;2023-05-02T07:41:51;11.40;99.90
22071;DHT22;11200;51.488;6.668;2023-05-02T07:44:17;11.40;99.90
22071;DHT22;11200;51.488;6.668;2023-05-02T07:46:42;11.40;99.90
22071;DHT22;11200;51.488;6.668;2023-05-02T07:49:08;11.50;99.90
22071;DHT22;11200;51.488;6.668;2023-05-02T07:51:34;11.50;99.90
22071;DHT22;11200;51.488;6.668;2023-05-02T07:53:59;11.50;99.90
22071;DHT22;11200;51.488;6.668;2023-05-02T07:56:26;11.50;99.90
22071;DHT22;11200;51.488;6.668;2023-05-02T07:58:52;11.50;99.90
22071;DHT22;11200;51.488;6.668;2023-05-02T08:01:18;11.50;99.90
22071;DHT22;11200;51.488;6.668;2023-05-02T08:03:44;11.60;99.90
22071;DHT22;11200;51.488;6.668;2023-05-02T08:06:09;11.60;99.90
22071;DHT22;11200;51.488;6.668;2023-05-02T08:08:35;11.60;99.90
22071;DHT22;11200;51.488;6.668;2023-05-02T08:11:01;11.60;99.90
22071;DHT22;11200;51.488;6.668;2023-05-02T08:13:27;11.70;99.90
22071;DHT22;11200;51.488;6.668;2023-05-02T08:15:53;11.70;99.90
22071;DHT22;11200;51.488;6.668;2023-05-02T08:18:26;11.70;99.90
22071;DHT22;11200;51.488;6.668;2023-05-02T08:20:52;11.70;99.90
22071;DHT22;11200;51.488;6.668;2023-05-02T08:23:17;11.80;99.90
22071;DHT22;11200;51.488;6.668;2023-05-02T08:25:43;11.80;99.90
22071;DHT22;11200;51.488;6.668;2023-05-02T08:28:09;11.80;99.90
22071;DHT22;11200;51.488;6.668;2023-05-02T08:30:34;11.90;99.90
22071;DHT22;11200;51.488;6.668;2023-05-02T08:33:00;11.90;99.90
22071;DHT22;11200;51.488;6.668;2023-05-02T08:35:28;11.90;99.90
22071;DHT22;11200;51.488;6.668;2023-05-02T08:37:54;11.90;99.90
22071;DHT22;11200;51.488;6.668;2023-05-02T08:40:21;11.90;99.90
22071;DHT22;11200;51.488;6.668;2023-05-02T08:42:47;12.00;99.90
22071;DHT22;11200;51.488;6.668;2023-05-02T08:45:13;12.00;99.90
22071;DHT22;11200;51.488;6.668;2023-05-02T08:47:40;12.10;99.90
22071;DHT22;11200;51.488;6.668;2023-05-02T08:50:08;12.20;99.90
22071;DHT22;11200;51.488;6.668;2023-05-02T08:52:35;12.30;99.90
22071;DHT22;11200;51.488;6.668;2023-05-02T08:55:02;12.40;99.90
22071;DHT22;11200;51.488;6.668;2023-05-02T08:57:29;12.50;99.90
22071;DHT22;11200;51.488;6.668;2023-05-02T08:59:55;12.60;99.90
22071;DHT22;11200;51.488;6.668;2023-05-02T09:05:10;12.90;99.90
22071;DHT22;11200;51.488;6.668;2023-05-02T09:07:44;13.00;99.90
22071;DHT22;11200;51.488;6.668;2023-05-02T09:10:12;13.10;99.90
22071;DHT22;11200;51.488;6.668;2023-05-02T09:12:37;13.20;99.90
22071;DHT22;11200;51.488;6.668;2023-05-02T09:15:14;13.30;99.90
22071;DHT22;11200;51.488;6.668;2023-05-02T09:17:45;13.40;99.90
22071;DHT22;11200;51.488;6.668;2023-05-02T09:20:13;13.50;99.90
22071;DHT22;11200;51.488;6.668;2023-05-02T09:22:47;13.60;99.90
22071;DHT22;11200;51.488;6.668;2023-05-02T09:25:14;13.60;99.90
22071;DHT22;11200;51.488;6.668;2023-05-02T09:27:50;13.70;99.90
22071;DHT22;11200;51.488;6.668;2023-05-02T09:30:24;13.80;99.90
22071;DHT22;11200;51.488;6.668;2023-05-02T09:32:51;13.90;99.90
22071;DHT22;11200;51.488;6.668;2023-05-02T09:35:18;13.90;99.90
22071;DHT22;11200;51.488;6.668;2023-05-02T09:37:55;14.00;99.90
22071;DHT22;11200;51.488;6.668;2023-05-02T09:40:21;14.00;99.90
22071;DHT22;11200;51.488;6.668;2023-05-02T09:42:48;14.10;99.90
22071;DHT22;11200;51.488;6.668;2023-05-02T09:45:25;14.20;99.90
22071;DHT22;11200;51.488;6.668;2023-05-02T09:47:51;14.20;99.90
22071;DHT22;11200;51.488;6.668;2023-05-02T09:50:36;14.20;99.90
22071;DHT22;11200;51.488;6.668;2023-05-02T09:53:04;14.20;99.90
22071;DHT22;11200;51.488;6.668;2023-05-02T09:55:30;14.20;99.90
22071;DHT22;11200;51.488;6.668;2023-05-02T09:57:56;14.20;99.90
22071;DHT22;11200;51.488;6.668;2023-05-02T10:00:22;14.10;99.90
22071;DHT22;11200;51.488;6.668;2023-05-02T10:02:49;14.10;99.90
22071;DHT22;11200;51.488;6.668;2023-05-02T10:05:16;14.10;99.90
22071;DHT22;11200;51.488;6.668;2023-05-02T10:07:45;14.10;99.90
22071;DHT22;11200;51.488;6.668;2023-05-02T10:10:14;14.00;99.90
22071;DHT22;11200;51.488;6.668;2023-05-02T10:12:41;14.00;99.90
22071;DHT22;11200;51.488;6.668;2023-05-02T10:15:09;14.10;99.90
22071;DHT22;11200;51.488;6.668;2023-05-02T10:17:46;14.00;99.90
22071;DHT22;11200;51.488;6.668;2023-05-02T10:20:17;13.90;99.90
22071;DHT22;11200;51.488;6.668;2023-05-02T10:22:46;13.90;99.90
22071;DHT22;11200;51.488;6.668;2023-05-02T10:25:13;13.90;99.90
22071;DHT22;11200;51.488;6.668;2023-05-02T10:27:40;13.90;99.90
22071;DHT22;11200;51.488;6.668;2023-05-02T10:30:06;13.90;99.90
22071;DHT22;11200;51.488;6.668;2023-05-02T10:32:33;13.90;99.90
22071;DHT22;11200;51.488;6.668;2023-05-02T10:35:05;13.90;99.90
22071;DHT22;11200;51.488;6.668;2023-05-02T10:37:33;13.90;99.90
22071;DHT22;11200;51.488;6.668;2023-05-02T10:40:00;13.90;99.90
22071;DHT22;11200;51.488;6.668;2023-05-02T10:42:27;14.00;99.90
22071;DHT22;11200;51.488;6.668;2023-05-02T10:44:54;13.90;99.90
22071;DHT22;11200;51.488;6.668;2023-05-02T10:47:24;14.00;99.90
22071;DHT22;11200;51.488;6.668;2023-05-02T11:00:27;14.60;99.90
22071;DHT22;11200;51.488;6.668;2023-05-02T11:02:57;14.70;99.90
22071;DHT22;11200;51.488;6.668;2023-05-02T11:05:23;14.70;99.90
22071;DHT22;11200;51.488;6.668;2023-05-02T11:07:49;14.80;99.90
22071;DHT22;11200;51.488;6.668;2023-05-02T11:10:35;14.80;99.90
22071;DHT22;11200;51.488;6.668;2023-05-02T11:13:00;14.90;99.90
22071;DHT22;11200;51.488;6.668;2023-05-02T11:18:04;14.90;99.90
22071;DHT22;11200;51.488;6.668;2023-05-02T11:20:34;14.90;99.90
22071;DHT22;11200;51.488;6.668;2023-05-02T11:25:45;15.00;99.90
22071;DHT22;11200;51.488;6.668;2023-05-02T11:33:58;15.20;99.90
22071;DHT22;11200;51.488;6.668;2023-05-02T11:36:34;15.20;99.90
22071;DHT22;11200;51.488;6.668;2023-05-02T11:39:03;15.30;99.90
22071;DHT22;11200;51.488;6.668;2023-05-02T11:41:41;15.40;99.90
22071;DHT22;11200;51.488;6.668;2023-05-02T11:44:07;15.50;99.90
22071;DHT22;11200;51.488;6.668;2023-05-02T11:46:35;15.50;99.90
22071;DHT22;11200;51.488;6.668;2023-05-02T11:49:02;15.60;99.90
22071;DHT22;11200;51.488;6.668;2023-05-02T11:51:27;15.60;99.90
22071;DHT22;11200;51.488;6.668;2023-05-02T11:53:53;15.60;99.90
22071;DHT22;11200;51.488;6.668;2023-05-02T11:56:23;15.70;99.90
22071;DHT22;11200;51.488;6.668;2023-05-02T11:59:00;15.80;99.90
22071;DHT22;11200;51.488;6.668;2023-05-02T12:01:27;15.90;99.90
22071;DHT22;11200;51.488;6.668;2023-05-02T12:04:04;15.90;99.90
22071;DHT22;11200;51.488;6.668;2023-05-02T12:06:31;16.20;99.90
22071;DHT22;11200;51.488;6.668;2023-05-02T12:09:08;16.30;99.90
22071;DHT22;11200;51.488;6.668;2023-05-02T12:11:34;16.40;99.90
22071;DHT22;11200;51.488;6.668;2023-05-02T12:14:01;16.50;99.90
22071;DHT22;11200;51.488;6.668;2023-05-02T12:16:27;16.60;99.90
22071;DHT22;11200;51.488;6.668;2023-05-02T12:18:53;16.70;99.90
22071;DHT22;11200;51.488;6.668;2023-05-02T12:21:22;17.00;99.90
22071;DHT22;11200;51.488;6.668;2023-05-02T12:23:48;17.00;99.90
22071;DHT22;11200;51.488;6.668;2023-05-02T12:26:20;17.30;99.90
22071;DHT22;11200;51.488;6.668;2023-05-02T12:28:50;17.50;99.90
22071;DHT22;11200;51.488;6.668;2023-05-02T12:31:16;17.70;99.90
22071;DHT22;11200;51.488;6.668;2023-05-02T12:33:43;17.80;99.90
22071;DHT22;11200;51.488;6.668;2023-05-02T12:36:08;17.90;99.90
22071;DHT22;11200;51.488;6.668;2023-05-02T12:38:35;18.00;99.90
22071;DHT22;11200;51.488;6.668;2023-05-02T12:41:01;18.00;99.90
22071;DHT22;11200;51.488;6.668;2023-05-02T12:43:27;18.10;99.90
22071;DHT22;11200;51.488;6.668;2023-05-02T12:46:10;18.20;99.90
22071;DHT22;11200;51.488;6.668;2023-05-02T12:48:36;18.10;99.90
22071;DHT22;11200;51.488;6.668;2023-05-02T12:51:01;18.20;99.90
22071;DHT22;11200;51.488;6.668;2023-05-02T12:53:40;18.20;99.90
22071;DHT22;11200;51.488;6.668;2023-05-02T12:56:08;18.30;99.90
22071;DHT22;11200;51.488;6.668;2023-05-02T12:58:47;18.40;99.90
22071;DHT22;11200;51.488;6.668;2023-05-02T13:01:13;18.40;99.90
22071;DHT22;11200;51.488;6.668;2023-05-02T13:03:43;18.50;99.90
22071;DHT22;11200;51.488;6.668;2023-05-02T13:06:12;18.50;99.90
22071;DHT22;11200;51.488;6.668;2023-05-02T13:08:41;18.40;99.90
22071;DHT22;11200;51.488;6.668;2023-05-02T13:11:10;18.40;99.90
22071;DHT22;11200;51.488;6.668;2023-05-02T13:13:37;18.50;99.90
22071;DHT22;11200;51.488;6.668;2023-05-02T13:16:02;18.60;99.90
22071;DHT22;11200;51.488;6.668;2023-05-02T13:18:28;18.40;99.90
22071;DHT22;11200;51.488;6.668;2023-05-02T13:20:54;18.60;99.90
22071;DHT22;11200;51.488;6.668;2023-05-02T13:23:19;18.60;99.90
22071;DHT22;11200;51.488;6.668;2023-05-02T13:25:45;18.60;99.90
22071;DHT22;11200;51.488;6.668;2023-05-02T13:28:11;18.70;99.90
22071;DHT22;11200;51.488;6.668;2023-05-02T13:30:36;18.80;99.90
22071;DHT22;11200;51.488;6.668;2023-05-02T13:33:02;18.90;99.90
22071;DHT22;11200;51.488;6.668;2023-05-02T13:35:27;19.00;99.90
22071;DHT22;11200;51.488;6.668;2023-05-02T13:37:53;19.00;99.90
22071;DHT22;11200;51.488;6.668;2023-05-02T13:40:18;19.10;99.90
22071;DHT22;11200;51.488;6.668;2023-05-02T13:42:45;19.10;99.90
22071;DHT22;11200;51.488;6.668;2023-05-02T13:45:10;19.10;99.90
22071;DHT22;11200;51.488;6.668;2023-05-02T13:47:36;19.20;99.90
22071;DHT22;11200;51.488;6.668;2023-05-02T13:50:02;19.20;99.90
22071;DHT22;11200;51.488;6.668;2023-05-02T13:52:28;19.10;99.90
22071;DHT22;11200;51.488;6.668;2023-05-02T13:54:53;19.20;99.90
22071;DHT22;11200;51.488;6.668;2023-05-02T13:57:19;19.20;99.90
22071;DHT22;11200;51.488;6.668;2023-05-02T13:59:45;19.30;99.90
22071;DHT22;11200;51.488;6.668;2023-05-02T14:02:11;19.60;99.90
22071;DHT22;11200;51.488;6.668;2023-05-02T14:04:39;19.30;99.90
22071;DHT22;11200;51.488;6.668;2023-05-02T14:07:07;19.30;99.90
22071;DHT22;11200;51.488;6.668;2023-05-02T14:09:33;19.40;99.90
22071;DHT22;11200;51.488;6.668;2023-05-02T14:11:58;19.40;99.90
22071;DHT22;11200;51.488;6.668;2023-05-02T14:14:24;19.50;99.90
22071;DHT22;11200;51.488;6.668;2023-05-02T14:16:50;19.50;99.90
22071;DHT22;11200;51.488;6.668;2023-05-02T14:19:16;19.50;99.90
22071;DHT22;11200;51.488;6.668;2023-05-02T14:21:42;19.50;99.90
22071;DHT22;11200;51.488;6.668;2023-05-02T14:24:07;19.50;99.90
22071;DHT22;11200;51.488;6.668;2023-05-02T14:26:33;19.40;99.90
22071;DHT22;11200;51.488;6.668;2023-05-02T14:28:59;19.40;99.90
22071;DHT22;11200;51.488;6.668;2023-05-02T14:31:25;19.40;99.90
22071;DHT22;11200;51.488;6.668;2023-05-02T14:33:50;19.40;99.90
22071;DHT22;11200;51.488;6.668;2023-05-02T14:36:16;19.30;99.90
22071;DHT22;11200;51.488;6.668;2023-05-02T14:38:42;19.30;99.90
22071;DHT22;11200;51.488;6.668;2023-05-02T14:41:07;19.20;99.90
22071;DHT22;11200;51.488;6.668;2023-05-02T14:43:36;19.20;99.90
22071;DHT22;11200;51.488;6.668;2023-05-02T14:46:03;19.20;99.90
22071;DHT22;11200;51.488;6.668;2023-05-02T14:48:29;19.20;99.90
22071;DHT22;11200;51.488;6.668;2023-05-02T14:50:55;19.10;99.90
22071;DHT22;11200;51.488;6.668;2023-05-02T14:53:21;19.10;99.90
22071;DHT22;11200;51.488;6.668;2023-05-02T14:55:48;19.00;99.90
22071;DHT22;11200;51.488;6.668;2023-05-02T14:58:14;19.00;99.90
22071;DHT22;11200;51.488;6.668;2023-05-02T15:00:45;18.90;99.90
22071;DHT22;11200;51.488;6.668;2023-05-02T15:03:11;18.70;99.90
22071;DHT22;11200;51.488;6.668;2023-05-02T15:05:36;18.60;99.90
22071;DHT22;11200;51.488;6.668;2023-05-02T15:08:02;18.60;99.90
22071;DHT22;11200;51.488;6.668;2023-05-02T15:10:27;18.50;99.90
22071;DHT22;11200;51.488;6.668;2023-05-02T15:12:53;18.50;99.90
22071;DHT22;11200;51.488;6.668;2023-05-02T15:15:19;18.40;99.90
22071;DHT22;11200;51.488;6.668;2023-05-02T15:17:50;18.30;99.90
22071;DHT22;11200;51.488;6.668;2023-05-02T15:20:15;18.20;99.90
22071;DHT22;11200;51.488;6.668;2023-05-02T15:22:41;18.20;99.90
22071;DHT22;11200;51.488;6.668;2023-05-02T15:25:07;18.10;99.90
22071;DHT22;11200;51.488;6.668;2023-05-02T15:27:33;18.00;99.90
22071;DHT22;11200;51.488;6.668;2023-05-02T15:29:59;17.90;99.90
22071;DHT22;11200;51.488;6.668;2023-05-02T15:32:24;17.90;99.90
22071;DHT22;11200;51.488;6.668;2023-05-02T15:34:50;17.70;99.90
22071;DHT22;11200;51.488;6.668;2023-05-02T15:37:15;17.70;99.90
22071;DHT22;11200;51.488;6.668;2023-05-02T15:39:41;17.60;99.90
22071;DHT22;11200;51.488;6.668;2023-05-02T15:42:06;17.50;99.90
22071;DHT22;11200;51.488;6.668;2023-05-02T15:44:36;17.40;99.90
22071;DHT22;11200;51.488;6.668;2023-05-02T15:47:02;17.40;99.90
22071;DHT22;11200;51.488;6.668;2023-05-02T15:49:28;17.30;99.90
22071;DHT22;11200;51.488;6.668;2023-05-02T15:52:01;17.20;99.90
22071;DHT22;11200;51.488;6.668;2023-05-02T15:54:28;17.10;99.90
22071;DHT22;11200;51.488;6.668;2023-05-02T15:56:54;17.00;99.90
22071;DHT22;11200;51.488;6.668;2023-05-02T15:59:19;16.90;99.90
22071;DHT22;11200;51.488;6.668;2023-05-02T16:01:45;16.80;99.90
22071;DHT22;11200;51.488;6.668;2023-05-02T16:04:11;16.70;99.90
22071;DHT22;11200;51.488;6.668;2023-05-02T16:06:36;16.70;99.90
22071;DHT22;11200;51.488;6.668;2023-05-02T16:09:02;16.60;99.90